createdAt,value
2018-11-13T00:02:06.701Z,99772.42
2018-11-13T00:04:34.177Z,99775.17
2018-11-13T00:07:01.609Z,99794.69
2018-11-13T00:09:29.050Z,99792.83
2018-11-13T00:11:56.501Z,99796.88
2018-11-13T00:14:23.931Z,99789.44
2018-11-13T00:16:51.384Z,99783.44
2018-11-13T00:19:18.815Z,99779.83
2018-11-13T00:21:46.246Z,99791.36
2018-11-13T00:24:13.713Z,99788.45
2018-11-13T00:26:41.169Z,99795.44
2018-11-13T00:29:08.601Z,99791.41
2018-11-13T00:31:36.044Z,99787.23
2018-11-13T00:34:03.489Z,99782.48
2018-11-13T00:36:30.970Z,99786.30
2018-11-13T00:38:58.408Z,99774.53
2018-11-13T00:41:25.879Z,99771.88
2018-11-13T00:43:53.329Z,99763.73
2018-11-13T00:46:20.784Z,99769.22
2018-11-13T00:48:48.224Z,99775.02
2018-11-13T00:51:15.652Z,99766.89
2018-11-13T00:53:43.100Z,99759.20
2018-11-13T00:56:10.529Z,99759.36
2018-11-13T00:58:38.749Z,99753.77
2018-11-13T01:01:06.184Z,99724.07
2018-11-13T01:03:33.620Z,99721.20
2018-11-13T01:06:01.056Z,99730.69
2018-11-13T01:08:28.502Z,99718.73
2018-11-13T01:10:56.642Z,99719.71
2018-11-13T01:13:24.096Z,99718.67
2018-11-13T01:15:51.540Z,99728.52
2018-11-13T01:18:18.984Z,99738.66
2018-11-13T01:20:46.424Z,99751.57
2018-11-13T01:23:13.871Z,99754.22
2018-11-13T01:25:41.301Z,99762.26
2018-11-13T01:28:08.743Z,99761.87
2018-11-13T01:30:36.196Z,99763.32
2018-11-13T01:33:03.641Z,99763.65
2018-11-13T01:35:31.077Z,99778.31
2018-11-13T01:37:58.520Z,99781.34
2018-11-13T01:40:25.956Z,99781.88
2018-11-13T01:42:53.524Z,99794.58
2018-11-13T01:45:20.959Z,99796.09
2018-11-13T01:47:48.386Z,99800.69
2018-11-13T01:50:15.827Z,99790.41
2018-11-13T01:52:43.256Z,99794.44
2018-11-13T01:55:10.712Z,99794.30
2018-11-13T01:57:38.179Z,99789.72
2018-11-13T02:00:05.620Z,99777.82
2018-11-13T02:02:33.061Z,99781.56
2018-11-13T02:05:01.450Z,99780.59
2018-11-13T02:07:28.956Z,99797.95
2018-11-13T02:09:56.408Z,99808.42
2018-11-13T02:12:23.876Z,99813.93
2018-11-13T02:14:51.307Z,99811.18
2018-11-13T02:17:18.749Z,99814.94
2018-11-13T02:19:46.218Z,99805.53
2018-11-13T02:22:13.655Z,99803.58
2018-11-13T02:24:41.096Z,99794.80
2018-11-13T02:27:08.560Z,99793.73
2018-11-13T02:29:35.991Z,99789.53
2018-11-13T02:32:03.434Z,99791.13
2018-11-13T02:34:30.881Z,99799.33
2018-11-13T02:36:58.312Z,99799.58
2018-11-13T02:39:25.744Z,99799.94
2018-11-13T02:41:53.195Z,99803.06
2018-11-13T02:44:20.641Z,99798.45
2018-11-13T02:46:48.069Z,99791.30
2018-11-13T02:49:15.520Z,99782.19
2018-11-13T02:51:42.952Z,99769.13
2018-11-13T02:54:10.416Z,99764.78
2018-11-13T02:56:37.856Z,99770.39
2018-11-13T02:59:06.754Z,99764.17
2018-11-13T03:01:34.246Z,99765.20
2018-11-13T03:04:01.681Z,99771.63
2018-11-13T03:06:29.116Z,99769.38
2018-11-13T03:08:56.548Z,99774.13
2018-11-13T03:11:23.995Z,99779.67
2018-11-13T03:13:51.548Z,99778.36
2018-11-13T03:16:18.877Z,99779.79
2018-11-13T03:18:46.314Z,99783.86
2018-11-13T03:21:13.759Z,99796.59
2018-11-13T03:23:41.201Z,99802.67
2018-11-13T03:26:08.664Z,99804.89
2018-11-13T03:28:36.105Z,99808.69
2018-11-13T03:31:03.639Z,99813.14
2018-11-13T03:33:30.996Z,99805.98
2018-11-13T03:35:58.424Z,99793.91
2018-11-13T03:38:25.876Z,99803.72
2018-11-13T03:40:53.306Z,99808.29
2018-11-13T03:43:20.741Z,99814.76
2018-11-13T03:45:48.181Z,99819.19
2018-11-13T03:48:15.612Z,99826.50
2018-11-13T03:50:43.068Z,99830.16
2018-11-13T03:53:10.497Z,99836.25
2018-11-13T03:55:37.933Z,99835.42
2018-11-13T03:58:05.365Z,99826.36
2018-11-13T04:00:32.829Z,99823.98
2018-11-13T04:03:00.256Z,99817.56
2018-11-13T04:05:28.033Z,99818.55
2018-11-13T04:07:55.478Z,99825.06
2018-11-13T04:10:22.913Z,99830.08
2018-11-13T04:12:50.331Z,99829.30
2018-11-13T04:15:17.777Z,99831.42
2018-11-13T04:17:45.205Z,99839.39
2018-11-13T04:20:12.675Z,99838.67
2018-11-13T04:22:40.148Z,99847.92
2018-11-13T04:25:07.572Z,99841.53
2018-11-13T04:27:35.004Z,99833.72
2018-11-13T04:30:02.454Z,99839.05
2018-11-13T04:32:29.886Z,99821.20
2018-11-13T04:34:57.325Z,99822.11
2018-11-13T04:37:25.667Z,99813.40
2018-11-13T04:39:53.232Z,99829.16
2018-11-13T04:42:20.657Z,99819.50
2018-11-13T04:44:48.091Z,99816.23
2018-11-13T04:47:15.520Z,99816.85
2018-11-13T04:49:42.944Z,99821.89
2018-11-13T04:52:11.418Z,99832.79
2018-11-13T04:54:38.931Z,99828.75
2018-11-13T04:57:06.361Z,99845.17
2018-11-13T04:59:33.788Z,99846.25
2018-11-13T05:02:01.255Z,99844.56
2018-11-13T05:04:28.797Z,99837.36
2018-11-13T05:06:56.224Z,99847.07
2018-11-13T05:09:23.678Z,99853.77
2018-11-13T05:11:51.100Z,99846.00
2018-11-13T05:14:18.542Z,99845.28
2018-11-13T05:16:45.988Z,99853.98
2018-11-13T05:19:13.437Z,99848.80
2018-11-13T05:21:40.860Z,99852.75
2018-11-13T05:24:08.288Z,99863.97
2018-11-13T05:26:35.713Z,99885.09
2018-11-13T05:29:03.189Z,99878.16
2018-11-13T05:31:30.612Z,99862.59
2018-11-13T05:33:58.048Z,99875.62
2018-11-13T05:36:25.491Z,99865.22
2018-11-13T05:38:52.942Z,99871.34
2018-11-13T05:41:20.364Z,99887.42
2018-11-13T05:43:47.796Z,99893.22
2018-11-13T05:46:15.244Z,99890.44
2018-11-13T05:48:42.673Z,99879.11
2018-11-13T05:51:10.096Z,99878.03
2018-11-13T05:53:37.543Z,99880.81
2018-11-13T05:56:04.968Z,99880.09
2018-11-13T05:58:32.413Z,99888.51
2018-11-13T06:00:59.849Z,99890.08
2018-11-13T06:03:27.268Z,99902.75
2018-11-13T06:05:54.761Z,99900.54
2018-11-13T06:08:22.246Z,99901.80
2018-11-13T06:10:49.632Z,99909.05
2018-11-13T06:13:17.068Z,99903.09
2018-11-13T06:15:44.489Z,99903.39
2018-11-13T06:18:11.994Z,99908.44
2018-11-13T06:20:39.399Z,99901.59
2018-11-13T06:23:06.888Z,99910.04
2018-11-13T06:25:34.268Z,99906.55
2018-11-13T06:28:01.768Z,99910.03
2018-11-13T06:30:29.149Z,99918.51
2018-11-13T06:32:56.568Z,99923.80
2018-11-13T06:35:24.001Z,99923.28
2018-11-13T06:37:51.455Z,99931.16
2018-11-13T06:40:18.880Z,99935.55
2018-11-13T06:42:46.308Z,99937.12
2018-11-13T06:45:13.742Z,99942.09
2018-11-13T06:47:41.164Z,99944.37
2018-11-13T06:50:08.596Z,99949.88
2018-11-13T06:52:36.034Z,99950.08
2018-11-13T06:55:04.415Z,99956.12
2018-11-13T06:57:31.962Z,99951.83
2018-11-13T06:59:59.356Z,99958.99
2018-11-13T07:02:27.686Z,99964.08
2018-11-13T07:04:56.057Z,99969.74
2018-11-13T07:08:05.257Z,99970.27
2018-11-13T07:13:28.163Z,99973.42
2018-11-13T07:16:00.166Z,99985.33
2018-11-13T07:18:27.721Z,99985.47
2018-11-13T07:20:55.113Z,99988.78
2018-11-13T07:23:23.813Z,99989.77
2018-11-13T07:25:51.255Z,100002.68
2018-11-13T07:28:18.697Z,99998.04
2018-11-13T07:30:46.140Z,100010.70
2018-11-13T07:33:13.573Z,100013.80
2018-11-13T07:35:41.005Z,100020.37
2018-11-13T07:38:08.449Z,100014.65
2018-11-13T07:40:35.964Z,100022.66
2018-11-13T07:43:03.552Z,100026.38
2018-11-13T07:45:31.000Z,100024.09
2018-11-13T07:47:58.510Z,100022.16
2018-11-13T07:50:25.868Z,100021.86
2018-11-13T07:52:53.312Z,100029.80
2018-11-13T07:55:20.769Z,100035.91
2018-11-13T07:57:48.208Z,100030.74
2018-11-13T08:00:15.644Z,100024.74
2018-11-13T08:02:43.085Z,100036.49
2018-11-13T08:05:10.510Z,100043.98
2018-11-13T08:07:37.943Z,100052.52
2018-11-13T08:10:05.373Z,100062.74
2018-11-13T08:12:32.809Z,100054.16
2018-11-13T08:15:00.252Z,100054.66
2018-11-13T08:17:27.683Z,100058.58
2018-11-13T08:19:55.161Z,100063.53
2018-11-13T08:22:22.641Z,100073.39
2018-11-13T08:24:50.082Z,100060.28
2018-11-13T08:27:17.508Z,100074.75
2018-11-13T08:29:45.000Z,100067.53
2018-11-13T08:32:12.430Z,100062.21
2018-11-13T08:34:39.887Z,100063.50
2018-11-13T08:37:07.339Z,100056.92
2018-11-13T08:39:34.764Z,100061.00
2018-11-13T08:42:02.193Z,100067.50
2018-11-13T08:44:29.628Z,100069.49
2018-11-13T08:46:57.069Z,100076.25
2018-11-13T08:49:24.488Z,100073.12
2018-11-13T08:51:51.929Z,100072.22
2018-11-13T08:54:19.353Z,100074.41
2018-11-13T08:56:46.786Z,100078.41
2018-11-13T08:59:14.289Z,100078.19
2018-11-13T09:01:41.680Z,100096.80
2018-11-13T09:04:09.120Z,100077.89
2018-11-13T09:06:36.556Z,100085.01
2018-11-13T09:09:05.209Z,100085.96
2018-11-13T09:11:33.021Z,100091.99
2018-11-13T09:14:00.429Z,100103.37
2018-11-13T09:16:27.856Z,100103.00
2018-11-13T09:18:55.373Z,100108.09
2018-11-13T09:21:22.750Z,100113.03
2018-11-13T09:23:50.201Z,100109.56
2018-11-13T09:26:17.654Z,100113.23
2018-11-13T09:28:45.072Z,100125.91
2018-11-13T09:31:13.609Z,100128.42
2018-11-13T09:33:41.059Z,100126.94
2018-11-13T09:36:08.480Z,100119.17
2018-11-13T09:38:35.924Z,100123.13
2018-11-13T09:41:03.361Z,100129.66
2018-11-13T09:43:30.817Z,100116.84
2018-11-13T09:45:58.350Z,100116.73
2018-11-13T09:48:25.736Z,100121.05
2018-11-13T09:50:53.192Z,100128.05
2018-11-13T09:53:21.592Z,100124.45
2018-11-13T09:55:49.076Z,100136.11
2018-11-13T09:58:16.513Z,100128.72
2018-11-13T10:00:44.156Z,100139.70
2018-11-13T10:03:12.852Z,100138.02
2018-11-13T10:05:39.930Z,100136.94
2018-11-13T10:08:07.280Z,100144.10
2018-11-13T10:10:34.761Z,100134.00
2018-11-13T10:13:02.167Z,100136.89
2018-11-13T10:15:29.606Z,100136.80
2018-11-13T10:17:57.151Z,100141.46
2018-11-13T10:20:24.489Z,100138.98
2018-11-13T10:22:51.916Z,100138.15
2018-11-13T10:25:19.335Z,100136.30
2018-11-13T10:27:47.817Z,100132.55
2018-11-13T10:30:15.196Z,100139.91
2018-11-13T10:32:42.628Z,100150.70
2018-11-13T10:35:10.064Z,100140.50
2018-11-13T10:37:37.496Z,100130.92
2018-11-13T10:40:04.977Z,100130.92
2018-11-13T10:42:32.364Z,100129.44
2018-11-13T10:44:59.813Z,100124.42
2018-11-13T10:47:27.248Z,100130.80
2018-11-13T10:49:54.695Z,100125.33
2018-11-13T10:52:22.148Z,100118.55
2018-11-13T10:54:49.576Z,100130.80
2018-11-13T10:57:17.025Z,100118.69
2018-11-13T10:59:44.457Z,100124.80
2018-11-13T11:02:11.942Z,100125.37
2018-11-13T11:04:39.377Z,100116.45
2018-11-13T11:07:06.805Z,100122.12
2018-11-13T11:09:34.235Z,100119.64
2018-11-13T11:12:01.690Z,100127.28
2018-11-13T11:14:29.119Z,100130.17
2018-11-13T11:16:56.560Z,100129.32
2018-11-13T11:19:24.030Z,100129.14
2018-11-13T11:21:52.501Z,100126.73
2018-11-13T11:24:20.303Z,100132.89
2018-11-13T11:26:47.640Z,100137.47
2018-11-13T11:29:15.084Z,100140.73
2018-11-13T11:31:42.512Z,100143.04
2018-11-13T11:34:09.946Z,100150.91
2018-11-13T11:36:37.385Z,100154.24
2018-11-13T11:39:05.033Z,100174.31
2018-11-13T11:41:32.272Z,100176.33
2018-11-13T11:43:59.725Z,100168.77
2018-11-13T11:46:27.152Z,100161.25
2018-11-13T11:48:54.582Z,100169.14
2018-11-13T11:51:22.017Z,100161.32
2018-11-13T11:53:49.469Z,100162.86
2018-11-13T11:56:16.904Z,100171.34
2018-11-13T11:58:44.332Z,100177.31
2018-11-13T12:01:11.764Z,100169.09
2018-11-13T12:03:39.192Z,100171.36
2018-11-13T12:06:06.628Z,100184.27
2018-11-13T12:08:34.071Z,100183.59
2018-11-13T12:11:01.500Z,100175.31
2018-11-13T12:13:28.928Z,100179.58
2018-11-13T12:15:56.373Z,100183.52
2018-11-13T12:18:23.813Z,100185.02
2018-11-13T12:20:51.284Z,100193.77
2018-11-13T12:23:18.705Z,100200.72
2018-11-13T12:25:46.192Z,100204.72
2018-11-13T12:28:15.298Z,100223.50
2018-11-13T12:30:42.748Z,100205.06
2018-11-13T12:33:10.182Z,100217.73
2018-11-13T12:35:37.644Z,100212.36
2018-11-13T12:38:05.056Z,100225.30
2018-11-13T12:40:32.503Z,100221.80
2018-11-13T12:42:59.966Z,100219.77
2018-11-13T12:45:27.396Z,100241.17
2018-11-13T12:47:54.828Z,100222.77
2018-11-13T12:50:22.264Z,100235.84
2018-11-13T12:52:49.714Z,100233.81
2018-11-13T12:55:17.161Z,100243.31
2018-11-13T12:57:44.585Z,100236.22
2018-11-13T13:00:12.029Z,100240.67
2018-11-13T13:02:39.468Z,100251.33
2018-11-13T13:05:06.899Z,100249.03
2018-11-13T13:07:34.357Z,100246.30
2018-11-13T13:10:01.788Z,100245.31
2018-11-13T13:12:29.257Z,100255.47
2018-11-13T13:14:56.748Z,100254.09
2018-11-13T13:17:24.126Z,100245.58
2018-11-13T13:19:51.564Z,100249.23
2018-11-13T13:22:20.543Z,100264.87
2018-11-13T13:24:48.111Z,100256.59
2018-11-13T13:27:15.533Z,100253.94
2018-11-13T13:29:42.969Z,100263.81
2018-11-13T13:32:10.392Z,100268.73
2018-11-13T13:34:37.828Z,100278.48
2018-11-13T13:37:05.264Z,100280.98
2018-11-13T13:39:32.696Z,100278.36
2018-11-13T13:42:00.128Z,100277.08
2018-11-13T13:44:28.345Z,100286.92
2018-11-13T13:46:55.782Z,100287.61
2018-11-13T13:49:23.224Z,100296.82
2018-11-13T13:51:50.663Z,100287.17
2018-11-13T13:54:18.155Z,100286.27
2018-11-13T13:56:45.576Z,100288.21
2018-11-13T13:59:13.004Z,100292.23
2018-11-13T14:01:40.431Z,100299.62
2018-11-13T14:04:07.897Z,100304.63
2018-11-13T14:06:35.332Z,100308.58
2018-11-13T14:09:02.759Z,100308.75
2018-11-13T14:11:30.197Z,100309.46
2018-11-13T14:13:57.656Z,100316.84
2018-11-13T14:16:26.040Z,100323.62
2018-11-13T14:18:53.557Z,100329.09
2018-11-13T14:21:20.993Z,100331.27
2018-11-13T14:23:48.441Z,100336.30
2018-11-13T14:26:15.868Z,100332.33
2018-11-13T14:28:43.317Z,100342.77
2018-11-13T14:31:10.750Z,100351.16
2018-11-13T14:33:38.176Z,100341.00
2018-11-13T14:36:05.637Z,100355.33
2018-11-13T14:38:33.069Z,100354.09
2018-11-13T14:41:00.501Z,100351.95
2018-11-13T14:43:27.936Z,100355.00
2018-11-13T14:45:55.376Z,100365.45
2018-11-13T14:48:22.810Z,100371.45
2018-11-13T14:50:50.245Z,100379.68
2018-11-13T14:53:17.761Z,100378.62
2018-11-13T14:55:45.144Z,100381.92
2018-11-13T14:58:12.575Z,100386.52
2018-11-13T15:00:40.020Z,100391.76
2018-11-13T15:03:07.476Z,100402.16
2018-11-13T15:05:34.904Z,100407.72
2018-11-13T15:08:04.363Z,100407.38
2018-11-13T15:10:29.796Z,100409.30
2018-11-13T15:12:57.241Z,100406.95
2018-11-13T15:15:24.727Z,100410.86
2018-11-13T15:17:52.150Z,100419.41
2018-11-13T15:20:19.589Z,100427.66
2018-11-13T15:22:47.029Z,100428.30
2018-11-13T15:25:14.465Z,100436.53
2018-11-13T15:27:42.017Z,100432.46
2018-11-13T15:30:09.460Z,100441.13
2018-11-13T15:32:36.893Z,100446.37
2018-11-13T15:35:04.332Z,100446.27
2018-11-13T15:37:31.760Z,100454.10
2018-11-13T15:39:59.203Z,100454.28
2018-11-13T15:42:26.635Z,100459.06
2018-11-13T15:44:54.176Z,100460.45
2018-11-13T15:47:21.514Z,100461.54
2018-11-13T15:49:48.948Z,100468.44
2018-11-13T15:52:16.462Z,100469.95
2018-11-13T15:54:43.824Z,100469.17
2018-11-13T15:57:11.257Z,100467.55
2018-11-13T15:59:38.716Z,100473.61
2018-11-13T16:02:06.157Z,100479.39
2018-11-13T16:04:33.688Z,100484.66
2018-11-13T16:07:01.162Z,100492.30
2018-11-13T16:09:28.564Z,100496.72
2018-11-13T16:11:56.000Z,100504.13
2018-11-13T16:14:23.424Z,100502.63
2018-11-13T16:16:51.667Z,100503.49
2018-11-13T16:19:18.980Z,100500.74
2018-11-13T16:21:46.448Z,100510.00
2018-11-13T16:24:13.888Z,100509.88
2018-11-13T16:26:41.326Z,100515.85
2018-11-13T16:29:08.768Z,100521.44
2018-11-13T16:31:36.205Z,100525.45
2018-11-13T16:34:03.632Z,100530.45
2018-11-13T16:36:31.215Z,100534.41
2018-11-13T16:38:58.545Z,100529.92
2018-11-13T16:41:25.998Z,100537.54
2018-11-13T16:43:53.419Z,100548.67
2018-11-13T16:46:20.857Z,100541.36
2018-11-13T16:48:48.300Z,100540.89
2018-11-13T16:51:15.729Z,100546.44
2018-11-13T16:53:45.319Z,100550.37
2018-11-13T16:56:12.938Z,100553.93
2018-11-13T16:58:40.372Z,100549.21
2018-11-13T17:01:07.897Z,100546.16
2018-11-13T17:03:35.300Z,100552.66
2018-11-13T17:06:02.792Z,100545.72
2018-11-13T17:08:30.265Z,100553.25
2018-11-13T17:10:59.984Z,100561.39
2018-11-13T17:13:27.491Z,100567.17
2018-11-13T17:15:54.964Z,100562.34
2018-11-13T17:18:23.666Z,100568.18
2018-11-13T17:20:51.109Z,100567.97
2018-11-13T17:23:18.542Z,100563.25
2018-11-13T17:25:45.972Z,100574.02
2018-11-13T17:28:13.404Z,100579.22
2018-11-13T17:30:40.844Z,100573.63
2018-11-13T17:33:08.276Z,100580.73
2018-11-13T17:35:35.729Z,100583.95
2018-11-13T17:38:03.203Z,100584.86
2018-11-13T17:40:30.635Z,100582.16
2018-11-13T17:42:58.072Z,100582.76
2018-11-13T17:45:25.520Z,100588.52
2018-11-13T17:47:52.964Z,100582.19
2018-11-13T17:50:20.388Z,100585.64
2018-11-13T17:52:47.813Z,100587.30
2018-11-13T17:55:15.270Z,100594.19
2018-11-13T17:57:42.730Z,100594.95
2018-11-13T18:00:10.181Z,100587.75
2018-11-13T18:02:37.605Z,100593.05
2018-11-13T18:05:05.049Z,100596.00
2018-11-13T18:07:32.568Z,100584.06
2018-11-13T18:09:59.928Z,100587.56
2018-11-13T18:12:27.391Z,100593.23
2018-11-13T18:14:54.899Z,100590.07
2018-11-13T18:17:22.360Z,100592.02
2018-11-13T18:19:49.817Z,100599.34
2018-11-13T18:22:17.348Z,100599.59
2018-11-13T18:24:44.707Z,100600.56
2018-11-13T18:27:12.152Z,100611.16
2018-11-13T18:29:39.580Z,100605.88
2018-11-13T18:32:07.038Z,100606.03
2018-11-13T18:34:34.465Z,100609.76
2018-11-13T18:37:01.908Z,100623.24
2018-11-13T18:39:29.332Z,100618.97
2018-11-13T18:41:56.781Z,100615.14
2018-11-13T18:44:24.220Z,100611.84
2018-11-13T18:46:51.650Z,100618.27
2018-11-13T18:49:19.083Z,100627.25
2018-11-13T18:51:46.516Z,100628.82
2018-11-13T18:54:13.957Z,100624.79
2018-11-13T18:56:41.395Z,100633.69
2018-11-13T18:59:08.930Z,100640.16
2018-11-13T19:01:36.264Z,100640.59
2018-11-13T19:04:03.712Z,100640.19
2018-11-13T19:06:31.159Z,100649.45
2018-11-13T19:08:58.712Z,100649.27
2018-11-13T19:11:26.238Z,100650.73
2018-11-13T19:13:53.599Z,100652.53
2018-11-13T19:16:21.053Z,100650.16
2018-11-13T19:18:48.604Z,100659.80
2018-11-13T19:21:15.990Z,100662.89
2018-11-13T19:23:43.420Z,100658.86
2018-11-13T19:26:10.861Z,100660.98
2018-11-13T19:28:38.305Z,100661.27
2018-11-13T19:31:05.747Z,100661.59
2018-11-13T19:33:33.185Z,100653.86
2018-11-13T19:36:00.753Z,100660.66
2018-11-13T19:38:28.083Z,100660.11
2018-11-13T19:40:56.538Z,100667.73
2018-11-13T19:43:24.008Z,100667.50
2018-11-13T19:45:51.437Z,100665.48
2018-11-13T19:48:18.864Z,100676.00
2018-11-13T19:50:46.303Z,100683.56
2018-11-13T19:53:13.769Z,100690.58
2018-11-13T19:55:41.186Z,100688.98
2018-11-13T19:58:08.615Z,100686.41
2018-11-13T20:00:36.063Z,100686.77
2018-11-13T20:03:03.492Z,100686.53
2018-11-13T20:05:30.920Z,100684.65
2018-11-13T20:07:58.377Z,100694.57
2018-11-13T20:10:25.884Z,100691.87
2018-11-13T20:12:53.248Z,100688.25
2018-11-13T20:15:20.684Z,100693.28
2018-11-13T20:17:48.115Z,100693.97
2018-11-13T20:20:15.568Z,100701.72
2018-11-13T20:22:42.996Z,100704.81
2018-11-13T20:25:10.493Z,100690.95
2018-11-13T20:27:37.933Z,100696.03
2018-11-13T20:30:05.368Z,100708.18
2018-11-13T20:32:32.800Z,100708.30
2018-11-13T20:35:00.266Z,100706.27
2018-11-13T20:37:27.706Z,100704.36
2018-11-13T20:39:55.136Z,100716.70
2018-11-13T20:42:22.570Z,100713.58
2018-11-13T20:44:50.140Z,100703.45
2018-11-13T20:47:17.453Z,100708.13
2018-11-13T20:49:46.606Z,100712.61
2018-11-13T20:52:14.037Z,100713.58
2018-11-13T20:54:41.542Z,100717.56
2018-11-13T20:57:08.972Z,100715.47
2018-11-13T20:59:36.406Z,100717.05
2018-11-13T21:02:05.325Z,100723.86
2018-11-13T21:04:32.944Z,100731.70
2018-11-13T21:07:00.386Z,100729.65
2018-11-13T21:09:27.901Z,100730.12
2018-11-13T21:11:55.329Z,100728.91
2018-11-13T21:14:22.782Z,100726.39
2018-11-13T21:16:50.284Z,100726.69
2018-11-13T21:19:17.692Z,100721.42
2018-11-13T21:21:45.124Z,100723.62
2018-11-13T21:24:12.553Z,100725.97
2018-11-13T21:26:39.991Z,100731.14
2018-11-13T21:29:07.441Z,100734.17
2018-11-13T21:31:34.865Z,100733.45
2018-11-13T21:34:02.294Z,100738.36
2018-11-13T21:36:29.732Z,100740.01
2018-11-13T21:38:57.169Z,100741.08
2018-11-13T21:41:24.607Z,100745.37
2018-11-13T21:43:52.050Z,100742.20
2018-11-13T21:48:53.220Z,100746.72
2018-11-13T21:51:20.669Z,100744.03
2018-11-13T21:53:48.298Z,100743.80
2018-11-13T21:56:16.104Z,100745.73
2018-11-13T21:58:43.777Z,100747.27
2018-11-13T22:01:11.283Z,100746.67
2018-11-13T22:03:38.700Z,100747.68
2018-11-13T22:06:06.168Z,100754.94
2018-11-13T22:08:33.614Z,100740.27
2018-11-13T22:11:01.382Z,100749.98
2018-11-13T22:13:28.818Z,100747.53
2018-11-13T22:15:56.252Z,100750.08
2018-11-13T22:18:24.551Z,100747.91
2018-11-13T22:20:52.092Z,100749.97
2018-11-13T22:23:19.589Z,100746.07
2018-11-13T22:25:46.973Z,100746.98
2018-11-13T22:28:14.418Z,100755.89
2018-11-13T22:30:41.857Z,100754.18
2018-11-13T22:33:09.284Z,100765.36
2018-11-13T22:35:36.730Z,100763.05
2018-11-13T22:38:04.173Z,100762.27
2018-11-13T22:40:31.618Z,100761.66
2018-11-13T22:42:59.050Z,100758.11
2018-11-13T22:45:26.496Z,100763.04
2018-11-13T22:47:53.944Z,100766.39
2018-11-13T22:50:21.376Z,100768.53
2018-11-13T22:52:48.814Z,100763.59
2018-11-13T22:55:16.248Z,100761.55
2018-11-13T22:57:43.728Z,100761.42
2018-11-13T23:00:11.224Z,100763.67
2018-11-13T23:02:39.630Z,100771.27
2018-11-13T23:05:07.071Z,100765.03
2018-11-13T23:07:35.725Z,100769.64
2018-11-13T23:10:03.153Z,100771.40
2018-11-13T23:12:30.592Z,100766.90
2018-11-13T23:14:58.035Z,100769.20
2018-11-13T23:17:25.497Z,100773.37
2018-11-13T23:19:52.932Z,100774.14
2018-11-13T23:22:20.360Z,100783.48
2018-11-13T23:24:47.787Z,100775.20
2018-11-13T23:27:15.217Z,100777.72
2018-11-13T23:29:42.661Z,100775.63
2018-11-13T23:32:10.104Z,100782.06
2018-11-13T23:34:37.542Z,100782.26
2018-11-13T23:37:04.975Z,100781.30
2018-11-13T23:39:32.430Z,100786.70
2018-11-13T23:41:59.860Z,100792.00
2018-11-13T23:44:27.365Z,100792.46
2018-11-13T23:46:54.763Z,100795.09
2018-11-13T23:49:22.213Z,100797.86
2018-11-13T23:51:49.660Z,100801.27
2018-11-13T23:54:17.089Z,100804.81
2018-11-13T23:56:44.524Z,100794.75
2018-11-13T23:59:11.961Z,100788.36
